メインページ
METAR-TAF:

METAR-TAF

空港 :

ソルトレイクシティ, ユタ州, アメリカ合衆国

ソルトレイクシティ国際空港

緯度: 40-46-41N, 経度: 111-58-10W, 海抜: 1288m

現時点の気象観測

当レポートは37分前の15:54(UTC)に作成
南/南東の風 4kt
気温 10°C
湿度 66%
気圧 1030 hPa
視程: 16.1km
高度9000ftの雲はほとんどない
高度12000ftの雲は散在している
高度20000ftの千切れ雲あり
高度25000ftの千切れ雲あり

METAR: KSLC 221554Z 15004KT 10SM FEW090 SCT120 BKN200 BKN250 10/04 A3043 RMK AO2 SLP289 ACSL DSNT NE-SE AND NW T01000039

時間: 09:31 (16:31 UTC)

予報

当レポートは1時間41分前の14:50(UTC)に作成
予報は22日の 15時(UTC)から 23日の 18時(UTC)まで有効
南東の風 6kt
視程: 10km
高度12000ftの雲はほとんどない
高度20000ftの雲は散在している
22日の 2000時(UTC)から
北/北西の風 6kt
視程: 10km
高度20000ftの雲はほとんどない
23日の 0300時(UTC)から
南/南東の風 6kt
視程: 10km
高度20000ftの千切れ雲あり

TAF: KSLC 221450Z 2215/2318 14006KT P6SM FEW120 SCT200 FM222000 33006KT P6SM FEW200 FM230300 15006KT P6SM BKN200

4,000以上の空港の気象観測と天気予報(METAR報とTAF報)

利用可能な観測所は地図上に黄色い丸と赤い丸で示す。

丸の上にカーソルを重ねると観測所名を参照できる。

次にクリックすると気象観測と天気予報を参照できる。

マップの切り替え:黒色「×」印の緑ボタンをクリックして拡大、「-」印の緑ボタンをクリックして縮小、緑色の三角印をクリックして隣りの地図に切り替え


METAR-TAF: